Time;durP1;ratioP1;P1;durP2;ratioP2;P2;SDS_P1;SDS_P2;PMS_P1;PMS_P2;Temp;Humidity;BMP_temperature;BMP_pressure;BME280_temperature;BME280_humidity;BME280_pressure;Samples;Min_cycle;Max_cycle;Signal;HPM_P1;HPM_P2
2022/05/14 00:01:01;;;;;;;23.13;6.55;;;;;;;;;;4993613;28;20049;-79
2022/05/14 00:03:28;;;;;;;22.60;7.40;;;;;;;;;;4999910;28;20083;-79
2022/05/14 00:05:55;;;;;;;19.67;6.97;;;;;;;;;;5007183;28;20132;-79
2022/05/14 00:08:22;;;;;;;22.65;6.55;;;;;;;;;;4987639;28;20060;-76
2022/05/14 00:13:34;;;;;;;29.60;7.40;;;;;;;;;;5003571;28;20057;-78
2022/05/14 00:16:00;;;;;;;21.88;7.13;;;;;;;;;;5002689;28;20128;-81
2022/05/14 00:18:27;;;;;;;28.95;8.48;;;;;;;;;;4976331;28;20053;-79
2022/05/14 00:20:53;;;;;;;26.20;7.88;;;;;;;;;;5003420;28;20092;-78
2022/05/14 00:23:35;;;;;;;27.02;8.40;;;;;;;;;;5003067;28;20073;-77
2022/05/14 00:26:01;;;;;;;19.90;6.72;;;;;;;;;;4980110;28;21083;-80
2022/05/14 00:28:33;;;;;;;29.77;7.55;;;;;;;;;;5000993;28;20088;-77
2022/05/14 00:30:59;;;;;;;22.92;6.53;;;;;;;;;;5005074;28;20060;-77
2022/05/14 00:33:25;;;;;;;25.63;7.13;;;;;;;;;;4984921;28;20046;-80
2022/05/14 00:35:51;;;;;;;23.75;7.18;;;;;;;;;;4994119;28;20053;-76
2022/05/14 00:38:17;;;;;;;19.98;7.18;;;;;;;;;;5018453;28;20052;-77
2022/05/14 00:40:54;;;;;;;26.80;7.18;;;;;;;;;;5003429;28;20073;-80
2022/05/14 00:43:21;;;;;;;23.50;6.53;;;;;;;;;;5012337;28;20061;-78
2022/05/14 00:46:04;;;;;;;22.02;6.75;;;;;;;;;;4968720;28;20129;-79
2022/05/14 00:48:37;;;;;;;21.13;6.18;;;;;;;;;;4969986;28;20125;-77
2022/05/14 00:51:03;;;;;;;24.98;6.93;;;;;;;;;;4979451;28;20353;-78
2022/05/14 00:53:36;;;;;;;22.42;6.85;;;;;;;;;;5002551;28;20459;-78
2022/05/14 00:56:08;;;;;;;24.08;7.35;;;;;;;;;;5000045;28;20049;-76
2022/05/14 00:58:44;;;;;;;23.83;6.70;;;;;;;;;;4964366;28;20046;-77
2022/05/14 01:03:51;;;;;;;22.08;6.78;;;;;;;;;;5005561;23;20061;-79
2022/05/14 01:06:18;;;;;;;22.02;6.70;;;;;;;;;;4967679;28;20127;-78
2022/05/14 01:08:46;;;;;;;24.30;6.75;;;;;;;;;;5004076;28;20049;-79
2022/05/14 01:11:12;;;;;;;29.65;7.30;;;;;;;;;;5003360;28;20402;-78
2022/05/14 01:13:39;;;;;;;25.08;7.25;;;;;;;;;;4988085;28;20048;-77
2022/05/14 01:16:17;;;;;;;26.58;7.13;;;;;;;;;;4987613;28;20037;-78
2022/05/14 01:18:43;;;;;;;25.67;6.95;;;;;;;;;;5004207;28;20057;-77
2022/05/14 01:21:23;;;;;;;26.17;6.50;;;;;;;;;;5006563;28;20108;-77
2022/05/14 01:26:41;;;;;;;34.67;7.53;;;;;;;;;;5010929;28;20042;-84
2022/05/14 01:29:07;;;;;;;28.80;7.28;;;;;;;;;;4996621;28;20034;-81
2022/05/14 01:31:35;;;;;;;30.90;7.38;;;;;;;;;;4982293;28;20618;-84
2022/05/14 01:34:17;;;;;;;26.13;7.68;;;;;;;;;;4991073;28;20049;-79
2022/05/14 01:36:56;;;;;;;31.38;8.10;;;;;;;;;;5002270;28;20589;-78
2022/05/14 01:39:23;;;;;;;37.92;8.77;;;;;;;;;;4972736;28;20034;-77
2022/05/14 01:41:49;;;;;;;29.10;7.53;;;;;;;;;;4989411;28;20506;-78
2022/05/14 01:44:16;;;;;;;24.13;6.68;;;;;;;;;;4980773;28;20034;-77
2022/05/14 01:46:42;;;;;;;31.90;8.55;;;;;;;;;;4989190;28;20041;-78
2022/05/14 01:49:08;;;;;;;34.25;8.15;;;;;;;;;;5007441;28;20496;-78
2022/05/14 01:51:34;;;;;;;28.58;8.73;;;;;;;;;;5010005;28;20100;-78
2022/05/14 01:54:01;;;;;;;32.13;8.05;;;;;;;;;;4995184;28;20455;-80
2022/05/14 01:56:27;;;;;;;27.13;8.18;;;;;;;;;;4975626;28;20572;-77
2022/05/14 02:01:45;;;;;;;33.97;8.48;;;;;;;;;;4984862;28;20112;-77
2022/05/14 02:04:23;;;;;;;31.52;7.60;;;;;;;;;;4987161;28;20049;-79
2022/05/14 02:06:52;;;;;;;33.22;9.02;;;;;;;;;;5000660;28;20080;-78
2022/05/14 02:09:19;;;;;;;34.70;7.80;;;;;;;;;;5006213;28;20057;-79
2022/05/14 02:11:45;;;;;;;26.23;8.25;;;;;;;;;;4992534;28;20034;-79
2022/05/14 02:14:12;;;;;;;35.05;8.30;;;;;;;;;;5007482;28;20100;-79
2022/05/14 02:16:38;;;;;;;37.60;9.82;;;;;;;;;;5006296;28;20037;-80
2022/05/14 02:19:10;;;;;;;35.50;10.05;;;;;;;;;;5008073;28;20041;-80
2022/05/14 02:21:36;;;;;;;37.13;9.38;;;;;;;;;;4987574;28;20052;-79
2022/05/14 02:24:02;;;;;;;38.70;9.38;;;;;;;;;;5004641;28;20983;-79
2022/05/14 02:26:29;;;;;;;38.58;9.63;;;;;;;;;;5005827;28;21799;-78
2022/05/14 02:29:02;;;;;;;40.92;10.30;;;;;;;;;;5001898;28;20441;-80
2022/05/14 02:31:28;;;;;;;45.00;10.07;;;;;;;;;;5008849;28;20204;-78
2022/05/14 02:33:54;;;;;;;44.53;9.55;;;;;;;;;;4995848;28;20041;-79
2022/05/14 02:36:20;;;;;;;39.00;9.57;;;;;;;;;;4972482;28;20512;-79
2022/05/14 02:38:47;;;;;;;45.83;10.50;;;;;;;;;;5012497;28;20049;-79
2022/05/14 02:41:16;;;;;;;40.03;9.20;;;;;;;;;;4994009;28;20080;-81
2022/05/14 02:43:43;;;;;;;39.33;9.93;;;;;;;;;;4974135;28;20046;-77
2022/05/14 02:46:09;;;;;;;37.47;10.10;;;;;;;;;;5002370;28;20045;-78
2022/05/14 02:48:36;;;;;;;32.42;9.10;;;;;;;;;;5004831;28;20104;-78
2022/05/14 02:51:02;;;;;;;28.08;9.70;;;;;;;;;;5007701;28;20085;-79
2022/05/14 02:53:28;;;;;;;36.85;9.55;;;;;;;;;;4992940;28;20048;-78
2022/05/14 02:55:57;;;;;;;35.85;10.10;;;;;;;;;;4979900;28;20374;-81
2022/05/14 03:01:09;;;;;;;42.53;10.45;;;;;;;;;;4990677;28;20497;-83
2022/05/14 03:03:36;;;;;;;42.10;10.98;;;;;;;;;;5011635;28;20050;-79
2022/05/14 03:06:02;;;;;;;41.55;10.90;;;;;;;;;;5006869;28;20128;-77
2022/05/14 03:08:31;;;;;;;56.28;11.77;;;;;;;;;;4994092;28;20041;-77
2022/05/14 03:10:58;;;;;;;36.45;10.48;;;;;;;;;;4990525;28;20054;-80
2022/05/14 03:13:24;;;;;;;41.13;10.95;;;;;;;;;;5003566;28;20038;-83
2022/05/14 03:15:50;;;;;;;43.70;11.85;;;;;;;;;;5005123;28;20061;-79
2022/05/14 03:18:20;;;;;;;44.22;11.10;;;;;;;;;;5017528;28;20068;-81
2022/05/14 03:20:47;;;;;;;45.45;10.95;;;;;;;;;;4993972;28;20056;-80
2022/05/14 03:23:13;;;;;;;34.05;10.57;;;;;;;;;;5009028;28;20053;-77
2022/05/14 03:25:39;;;;;;;43.22;11.65;;;;;;;;;;4991555;28;20064;-77
2022/05/14 03:28:05;;;;;;;40.55;11.02;;;;;;;;;;4975844;28;20050;-79
2022/05/14 03:30:32;;;;;;;43.88;10.30;;;;;;;;;;4991949;28;20405;-78
2022/05/14 03:32:58;;;;;;;37.15;10.02;;;;;;;;;;4958832;28;20050;-78
2022/05/14 03:35:24;;;;;;;39.67;10.88;;;;;;;;;;4973238;28;20045;-78
2022/05/14 03:37:50;;;;;;;43.15;10.52;;;;;;;;;;4989128;28;20056;-78
2022/05/14 03:40:16;;;;;;;51.40;10.77;;;;;;;;;;4973847;28;20356;-78
2022/05/14 03:42:43;;;;;;;42.13;11.35;;;;;;;;;;4986555;28;20042;-78
2022/05/14 03:45:09;;;;;;;42.08;11.88;;;;;;;;;;4975894;28;20045;-79
2022/05/14 03:47:41;;;;;;;40.15;10.95;;;;;;;;;;5008012;28;20793;-79
2022/05/14 03:50:08;;;;;;;33.72;11.13;;;;;;;;;;5010131;28;20092;-78
2022/05/14 03:52:37;;;;;;;46.25;11.27;;;;;;;;;;4993782;28;20133;-79
2022/05/14 03:55:15;;;;;;;50.92;12.68;;;;;;;;;;4991237;28;20050;-77
2022/05/14 03:57:41;;;;;;;49.47;13.02;;;;;;;;;;4992695;28;20069;-76
2022/05/14 04:00:11;;;;;;;44.85;10.95;;;;;;;;;;4961145;28;20041;-78
2022/05/14 04:02:38;;;;;;;51.92;12.23;;;;;;;;;;5008584;28;20069;-79
2022/05/14 04:05:04;;;;;;;55.03;12.25;;;;;;;;;;5010756;28;20062;-79
2022/05/14 04:07:33;;;;;;;43.05;11.40;;;;;;;;;;5011202;28;20709;-79
2022/05/14 04:10:10;;;;;;;42.13;11.77;;;;;;;;;;4992442;28;20482;-87
2022/05/14 04:12:36;;;;;;;43.83;12.07;;;;;;;;;;5011305;28;20375;-77
2022/05/14 04:15:02;;;;;;;34.88;11.75;;;;;;;;;;5011976;28;20030;-79
2022/05/14 04:17:42;;;;;;;49.75;12.48;;;;;;;;;;5012800;28;20077;-84
2022/05/14 04:20:11;;;;;;;48.45;12.43;;;;;;;;;;5011228;28;20038;-84
2022/05/14 04:22:43;;;;;;;45.10;12.38;;;;;;;;;;5015172;28;20046;-79
2022/05/14 04:25:11;;;;;;;46.10;11.88;;;;;;;;;;5013168;28;20046;-80
2022/05/14 04:27:46;;;;;;;49.35;11.77;;;;;;;;;;5014903;28;20092;-84
2022/05/14 04:30:19;;;;;;;45.20;12.52;;;;;;;;;;5015620;28;20042;-80
2022/05/14 04:32:45;;;;;;;48.47;12.63;;;;;;;;;;5015700;28;20116;-85
2022/05/14 04:35:12;;;;;;;46.25;12.40;;;;;;;;;;4994435;28;20034;-76
2022/05/14 04:37:38;;;;;;;45.30;11.70;;;;;;;;;;5007479;28;20528;-80
2022/05/14 04:40:05;;;;;;;50.15;11.95;;;;;;;;;;5007760;28;20038;-78
2022/05/14 04:42:31;;;;;;;53.83;12.93;;;;;;;;;;5006354;28;20060;-80
2022/05/14 04:44:58;;;;;;;39.40;12.15;;;;;;;;;;4990349;28;20561;-77
2022/05/14 04:47:24;;;;;;;37.30;10.30;;;;;;;;;;5004803;28;20453;-79
2022/05/14 04:49:50;;;;;;;46.53;12.18;;;;;;;;;;4987882;28;20054;-78
2022/05/14 04:52:17;;;;;;;40.28;11.93;;;;;;;;;;5005479;28;20038;-78
2022/05/14 04:54:43;;;;;;;44.30;11.65;;;;;;;;;;5007656;28;20046;-79
2022/05/14 04:57:18;;;;;;;43.78;9.95;;;;;;;;;;5006887;28;20100;-78
2022/05/14 04:59:45;;;;;;;44.90;12.27;;;;;;;;;;5004750;28;20030;-77
2022/05/14 05:04:55;;;;;;;46.22;12.35;;;;;;;;;;5007501;28;20050;-78
2022/05/14 05:07:21;;;;;;;48.00;11.93;;;;;;;;;;5006888;28;20057;-77
2022/05/14 05:09:56;;;;;;;41.15;10.32;;;;;;;;;;5006778;28;20523;-76
2022/05/14 05:12:22;;;;;;;45.88;11.80;;;;;;;;;;5007058;28;20497;-78
2022/05/14 05:14:48;;;;;;;42.55;11.23;;;;;;;;;;5005536;28;20628;-78
2022/05/14 05:17:15;;;;;;;44.53;11.20;;;;;;;;;;5006400;28;20558;-78
2022/05/14 05:19:41;;;;;;;48.67;10.85;;;;;;;;;;5011506;28;20048;-78
2022/05/14 05:22:07;;;;;;;47.15;11.32;;;;;;;;;;4977549;28;20121;-77
2022/05/14 05:24:39;;;;;;;51.03;12.80;;;;;;;;;;4994818;28;20093;-79
2022/05/14 05:27:06;;;;;;;40.83;11.35;;;;;;;;;;5012584;28;20415;-78
2022/05/14 05:29:32;;;;;;;48.40;11.02;;;;;;;;;;5011576;28;20970;-77
2022/05/14 05:31:58;;;;;;;35.78;9.65;;;;;;;;;;4994793;28;20110;-77
2022/05/14 05:34:25;;;;;;;46.45;12.65;;;;;;;;;;5013362;28;20054;-79
2022/05/14 05:36:52;;;;;;;39.92;11.85;;;;;;;;;;4983121;28;20042;-82
2022/05/14 05:39:21;;;;;;;48.50;11.30;;;;;;;;;;4999880;28;20708;-79
2022/05/14 05:41:47;;;;;;;34.95;10.13;;;;;;;;;;4999927;28;20041;-79
2022/05/14 05:44:14;;;;;;;41.00;10.13;;;;;;;;;;5021521;28;20037;-85
2022/05/14 05:46:40;;;;;;;34.88;9.55;;;;;;;;;;4976451;28;20062;-78
2022/05/14 05:49:07;;;;;;;40.05;9.60;;;;;;;;;;5031345;28;20081;-79
2022/05/14 05:51:33;;;;;;;47.40;10.23;;;;;;;;;;5012688;28;20065;-78
2022/05/14 05:57:00;;;;;;;47.78;10.88;;;;;;;;;;5000906;28;20046;-81
2022/05/14 05:59:27;;;;;;;41.87;9.40;;;;;;;;;;4984898;28;20144;-79
2022/05/14 06:01:54;;;;;;;37.45;9.48;;;;;;;;;;5007858;28;20058;-78
2022/05/14 06:04:21;;;;;;;38.17;10.85;;;;;;;;;;5003458;28;20046;-83
2022/05/14 06:06:47;;;;;;;40.20;9.18;;;;;;;;;;5014625;28;20080;-78
2022/05/14 06:09:26;;;;;;;46.28;11.32;;;;;;;;;;4960818;28;20038;-84
2022/05/14 06:11:52;;;;;;;36.33;8.70;;;;;;;;;;4975892;28;20039;-80
2022/05/14 06:14:19;;;;;;;34.65;8.27;;;;;;;;;;4998480;28;20029;-83
2022/05/14 06:16:45;;;;;;;49.83;11.27;;;;;;;;;;5012124;28;20043;-79
2022/05/14 06:19:11;;;;;;;30.25;8.25;;;;;;;;;;4997269;28;20151;-76
2022/05/14 06:21:38;;;;;;;36.58;8.10;;;;;;;;;;4997412;28;20119;-80
2022/05/14 06:24:05;;;;;;;32.53;8.35;;;;;;;;;;5015949;28;20046;-78
2022/05/14 06:26:31;;;;;;;26.83;8.00;;;;;;;;;;4995525;28;20042;-80
2022/05/14 06:28:59;;;;;;;34.03;7.47;;;;;;;;;;5010752;28;20046;-78
2022/05/14 06:31:28;;;;;;;35.15;7.28;;;;;;;;;;5010869;28;20111;-81
2022/05/14 06:33:54;;;;;;;33.42;7.57;;;;;;;;;;5011459;28;20206;-78
2022/05/14 06:36:23;;;;;;;43.95;8.13;;;;;;;;;;5007987;28;20050;-79
2022/05/14 06:39:02;;;;;;;42.10;8.30;;;;;;;;;;4979844;28;20045;-83
2022/05/14 06:41:49;;;;;;;36.58;7.82;;;;;;;;;;4978189;28;20046;-77
2022/05/14 06:44:17;;;;;;;37.88;6.57;;;;;;;;;;4982513;28;20038;-88
2022/05/14 06:46:43;;;;;;;36.92;7.00;;;;;;;;;;5018834;28;20041;-89
2022/05/14 06:49:09;;;;;;;33.90;7.55;;;;;;;;;;5015536;28;20053;-86
2022/05/14 06:51:35;;;;;;;35.60;7.93;;;;;;;;;;5007586;28;20042;-84
2022/05/14 06:54:03;;;;;;;29.77;7.20;;;;;;;;;;4998871;28;20501;-83
2022/05/14 06:56:30;;;;;;;30.10;6.57;;;;;;;;;;5017355;28;20418;-84
2022/05/14 06:58:58;;;;;;;28.10;6.07;;;;;;;;;;4984338;28;20082;-86
2022/05/14 07:01:24;;;;;;;29.67;6.50;;;;;;;;;;4999458;28;20041;-83
2022/05/14 07:06:50;;;;;;;30.27;6.93;;;;;;;;;;5001450;28;20068;-89
2022/05/14 07:09:26;;;;;;;21.90;6.22;;;;;;;;;;4984169;28;20772;-89
2022/05/14 07:11:53;;;;;;;29.40;5.72;;;;;;;;;;5001298;28;20046;-87
2022/05/14 07:14:20;;;;;;;22.55;5.50;;;;;;;;;;5017423;28;20053;-85
2022/05/14 07:16:47;;;;;;;26.58;5.13;;;;;;;;;;5002680;28;20038;-86
2022/05/14 07:19:13;;;;;;;22.83;4.95;;;;;;;;;;5001512;28;20045;-87
2022/05/14 07:21:41;;;;;;;21.95;4.57;;;;;;;;;;5000687;28;20486;-87
2022/05/14 07:24:08;;;;;;;32.55;5.18;;;;;;;;;;5019748;28;20041;-87
2022/05/14 07:26:35;;;;;;;24.60;5.10;;;;;;;;;;5017406;28;20548;-85
2022/05/14 07:29:02;;;;;;;17.63;5.07;;;;;;;;;;5001169;28;20052;-79
2022/05/14 07:31:28;;;;;;;23.70;4.60;;;;;;;;;;4993821;28;20050;-82
2022/05/14 07:33:54;;;;;;;24.88;5.18;;;;;;;;;;4990860;28;20037;-80
2022/05/14 07:36:21;;;;;;;19.63;4.78;;;;;;;;;;5008982;28;20050;-79
2022/05/14 07:38:48;;;;;;;18.20;4.18;;;;;;;;;;4989909;28;20053;-78
2022/05/14 07:41:14;;;;;;;24.55;5.55;;;;;;;;;;4989021;28;20104;-77
2022/05/14 07:43:42;;;;;;;23.15;4.60;;;;;;;;;;5010362;28;20049;-82
2022/05/14 07:46:12;;;;;;;16.33;4.53;;;;;;;;;;5007284;28;20320;-79
2022/05/14 07:48:40;;;;;;;18.35;3.97;;;;;;;;;;5005264;28;20112;-83
2022/05/14 07:51:07;;;;;;;17.98;4.43;;;;;;;;;;5008175;28;20525;-82
2022/05/14 07:53:34;;;;;;;20.77;4.53;;;;;;;;;;4987802;28;20045;-79
2022/05/14 07:56:01;;;;;;;18.08;4.47;;;;;;;;;;4987727;28;20360;-79
2022/05/14 07:58:28;;;;;;;14.00;3.70;;;;;;;;;;5007521;28;20029;-80
2022/05/14 08:00:54;;;;;;;20.55;4.38;;;;;;;;;;4989339;28;20061;-78
2022/05/14 08:03:23;;;;;;;18.55;4.18;;;;;;;;;;4993492;28;20058;-81
2022/05/14 08:05:50;;;;;;;24.73;4.97;;;;;;;;;;5017627;28;20109;-80
2022/05/14 08:08:16;;;;;;;15.40;4.03;;;;;;;;;;5017954;28;20053;-81
2022/05/14 08:10:43;;;;;;;24.52;5.00;;;;;;;;;;5001693;28;20076;-80
2022/05/14 08:13:15;;;;;;;19.80;3.67;;;;;;;;;;5017589;28;20373;-85
2022/05/14 08:15:41;;;;;;;20.95;4.70;;;;;;;;;;4907473;29;20124;-86
2022/05/14 08:18:07;;;;;;;22.40;4.82;;;;;;;;;;4900171;29;20063;-89
2022/05/14 08:20:40;;;;;;;14.15;4.28;;;;;;;;;;4909651;29;20060;-79
2022/05/14 08:25:56;;;;;;;17.38;3.92;;;;;;;;;;4930057;29;20475;-87
2022/05/14 08:28:22;;;;;;;14.52;3.80;;;;;;;;;;4921119;29;20048;-86
2022/05/14 08:30:48;;;;;;;16.75;4.47;;;;;;;;;;4920359;29;20040;-85
2022/05/14 08:33:14;;;;;;;15.18;3.78;;;;;;;;;;4919188;29;20056;-88
2022/05/14 08:35:40;;;;;;;18.17;3.92;;;;;;;;;;4934419;29;20115;-88
2022/05/14 08:38:07;;;;;;;20.20;5.18;;;;;;;;;;4938277;29;20047;-87
2022/05/14 08:40:41;;;;;;;18.88;4.47;;;;;;;;;;4935838;29;20670;-86
2022/05/14 08:43:15;;;;;;;28.17;5.95;;;;;;;;;;4928756;29;20054;-87
2022/05/14 08:45:41;;;;;;;21.35;5.03;;;;;;;;;;4944327;28;20071;-89
2022/05/14 08:48:08;;;;;;;17.90;3.75;;;;;;;;;;5018181;28;20069;-90
2022/05/14 08:50:38;;;;;;;16.15;4.50;;;;;;;;;;5018620;28;20467;-87
2022/05/14 08:53:06;;;;;;;16.92;4.88;;;;;;;;;;4984990;28;20107;-89
2022/05/14 08:55:38;;;;;;;23.27;5.05;;;;;;;;;;5019323;28;20037;-87
2022/05/14 08:58:27;;;;;;;23.42;4.88;;;;;;;;;;4977282;28;20054;-81
2022/05/14 09:00:54;;;;;;;22.20;4.70;;;;;;;;;;4976880;28;20523;-85
2022/05/14 09:03:21;;;;;;;20.75;5.18;;;;;;;;;;4942978;28;20551;-88
2022/05/14 09:05:53;;;;;;;21.05;5.30;;;;;;;;;;4959714;28;20039;-90
2022/05/14 09:08:19;;;;;;;23.75;5.20;;;;;;;;;;4971990;28;20078;-89
2022/05/14 09:10:55;;;;;;;17.02;4.13;;;;;;;;;;4941119;28;20629;-78
2022/05/14 09:13:23;;;;;;;18.33;4.90;;;;;;;;;;4959306;28;20053;-83
2022/05/14 09:15:51;;;;;;;22.02;5.32;;;;;;;;;;4943756;28;20119;-87
2022/05/14 09:18:22;;;;;;;17.30;5.03;;;;;;;;;;4958353;28;20601;-83
2022/05/14 09:20:55;;;;;;;19.50;4.95;;;;;;;;;;4973627;28;20054;-87
2022/05/14 09:23:30;;;;;;;19.08;3.92;;;;;;;;;;4975844;28;20050;-88
2022/05/14 09:25:58;;;;;;;23.98;4.78;;;;;;;;;;4938826;28;20063;-86
2022/05/14 09:28:28;;;;;;;22.58;4.68;;;;;;;;;;4981952;28;20054;-87
2022/05/14 09:30:55;;;;;;;16.63;4.30;;;;;;;;;;5016074;28;20045;-89
2022/05/14 09:36:19;;;;;;;27.35;4.93;;;;;;;;;;4999183;28;20173;-90
2022/05/14 09:39:00;;;;;;;23.02;4.18;;;;;;;;;;4985275;28;20038;-90
2022/05/14 09:41:26;;;;;;;22.20;4.88;;;;;;;;;;5017624;28;20054;-89
2022/05/14 09:43:53;;;;;;;18.58;4.95;;;;;;;;;;5018726;28;20038;-87
2022/05/14 09:46:28;;;;;;;20.77;4.93;;;;;;;;;;4997370;28;20050;-88
2022/05/14 09:49:00;;;;;;;27.92;5.97;;;;;;;;;;5014727;28;20034;-91
2022/05/14 09:51:50;;;;;;;27.38;6.05;;;;;;;;;;4997523;28;20498;-89
2022/05/14 09:54:35;;;;;;;14.20;3.78;;;;;;;;;;4991516;28;20053;-89
2022/05/14 09:57:19;;;;;;;20.85;4.32;;;;;;;;;;4996467;28;20050;-81
2022/05/14 09:59:57;;;;;;;26.10;6.22;;;;;;;;;;5017239;28;20069;-91
2022/05/14 10:02:26;;;;;;;20.83;4.72;;;;;;;;;;4998692;28;20500;-86
2022/05/14 10:05:08;;;;;;;19.48;4.72;;;;;;;;;;5015791;28;20046;-90
2022/05/14 10:07:37;;;;;;;25.35;4.78;;;;;;;;;;5014683;28;21395;-89
2022/05/14 10:10:25;;;;;;;20.27;4.63;;;;;;;;;;5014980;28;20034;-89
2022/05/14 10:12:54;;;;;;;22.73;5.20;;;;;;;;;;4974009;28;20115;-81
2022/05/14 10:15:38;;;;;;;20.20;5.15;;;;;;;;;;5016026;28;20042;-87
2022/05/14 10:18:24;;;;;;;17.95;4.90;;;;;;;;;;4995315;28;20042;-88
2022/05/14 10:20:56;;;;;;;21.15;4.65;;;;;;;;;;5016759;28;20070;-88
2022/05/14 10:29:07;;;;;;;26.65;4.88;;;;;;;;;;5014790;28;20080;-86
2022/05/14 10:31:49;;;;;;;18.77;5.13;;;;;;;;;;5012634;28;20057;-82
2022/05/14 10:34:17;;;;;;;24.10;5.00;;;;;;;;;;5015278;28;20169;-85
2022/05/14 10:36:46;;;;;;;25.25;5.20;;;;;;;;;;5016052;28;20661;-88
2022/05/14 10:39:24;;;;;;;22.77;5.20;;;;;;;;;;4997459;28;20038;-88
2022/05/14 10:41:53;;;;;;;23.15;5.35;;;;;;;;;;4980115;28;20114;-84
2022/05/14 10:44:31;;;;;;;28.38;6.13;;;;;;;;;;4995284;28;20161;-85
2022/05/14 10:47:01;;;;;;;21.65;4.63;;;;;;;;;;4996856;28;20045;-88
2022/05/14 10:49:47;;;;;;;18.88;4.40;;;;;;;;;;5014260;28;20034;-90
2022/05/14 10:52:15;;;;;;;20.27;4.60;;;;;;;;;;4983528;28;20062;-87
2022/05/14 10:54:43;;;;;;;23.75;6.10;;;;;;;;;;5005585;28;20029;-87
2022/05/14 10:57:15;;;;;;;28.48;4.97;;;;;;;;;;5025346;28;20041;-85
2022/05/14 10:59:44;;;;;;;19.95;4.93;;;;;;;;;;5017799;28;20053;-84
2022/05/14 11:02:25;;;;;;;26.33;5.72;;;;;;;;;;5019888;28;20046;-86
2022/05/14 11:04:52;;;;;;;22.40;5.65;;;;;;;;;;5001693;28;20057;-86
2022/05/14 11:07:42;;;;;;;20.33;5.28;;;;;;;;;;5012931;28;20042;-88
2022/05/14 11:10:20;;;;;;;24.05;5.45;;;;;;;;;;4996457;28;21076;-85
2022/05/14 11:12:48;;;;;;;23.90;5.70;;;;;;;;;;5012699;28;20034;-88
2022/05/14 11:15:19;;;;;;;24.70;5.88;;;;;;;;;;4997306;28;20077;-88
2022/05/14 11:18:04;;;;;;;22.40;5.35;;;;;;;;;;5015680;28;20044;-89
2022/05/14 11:20:30;;;;;;;26.17;5.50;;;;;;;;;;4995152;28;20204;-90
2022/05/14 11:23:07;;;;;;;25.83;5.28;;;;;;;;;;5014843;28;20049;-90
2022/05/14 11:25:34;;;;;;;27.80;6.10;;;;;;;;;;5013581;28;20062;-89
2022/05/14 11:28:08;;;;;;;22.98;6.55;;;;;;;;;;4994753;28;20627;-85
2022/05/14 11:30:54;;;;;;;25.08;6.30;;;;;;;;;;5011693;28;20098;-88
2022/05/14 11:33:26;;;;;;;17.65;5.25;;;;;;;;;;5012857;28;20053;-87
2022/05/14 11:35:55;;;;;;;17.40;5.13;;;;;;;;;;4998272;28;20091;-89
2022/05/14 11:38:24;;;;;;;19.52;5.45;;;;;;;;;;5008254;28;20050;-86
2022/05/14 11:40:56;;;;;;;27.42;5.70;;;;;;;;;;5015990;28;20045;-80
2022/05/14 11:43:26;;;;;;;20.63;5.97;;;;;;;;;;5008954;28;20066;-89
2022/05/14 11:46:00;;;;;;;22.88;5.47;;;;;;;;;;5011808;28;20971;-87
2022/05/14 11:48:30;;;;;;;24.25;5.35;;;;;;;;;;4995090;28;20065;-90
2022/05/14 11:51:06;;;;;;;19.92;5.57;;;;;;;;;;4974073;28;20034;-86
2022/05/14 11:53:39;;;;;;;22.08;4.88;;;;;;;;;;5011573;28;20050;-88
2022/05/14 11:56:24;;;;;;;22.88;5.47;;;;;;;;;;4997318;28;20048;-86
2022/05/14 11:59:05;;;;;;;24.00;5.65;;;;;;;;;;4996464;28;20041;-89
2022/05/14 12:01:34;;;;;;;20.90;6.07;;;;;;;;;;5014045;28;20624;-89
2022/05/14 12:04:07;;;;;;;20.55;5.38;;;;;;;;;;4996757;28;20069;-87
2022/05/14 12:06:42;;;;;;;20.63;5.68;;;;;;;;;;5015200;28;20045;-89
2022/05/14 12:09:09;;;;;;;21.48;5.93;;;;;;;;;;5010567;28;20038;-88
2022/05/14 12:11:45;;;;;;;24.15;5.85;;;;;;;;;;5013217;28;20103;-85
2022/05/14 12:14:14;;;;;;;20.70;5.55;;;;;;;;;;4991402;28;20058;-82
2022/05/14 12:16:53;;;;;;;23.83;6.03;;;;;;;;;;5013233;28;20045;-86
2022/05/14 12:19:43;;;;;;;21.55;5.70;;;;;;;;;;5013161;28;20046;-89
2022/05/14 12:22:16;;;;;;;23.20;6.22;;;;;;;;;;4990801;28;20083;-86
2022/05/14 12:24:53;;;;;;;26.75;5.90;;;;;;;;;;4979241;28;20113;-87
2022/05/14 12:27:20;;;;;;;20.52;5.40;;;;;;;;;;5010478;28;20257;-89
2022/05/14 12:29:55;;;;;;;25.80;5.78;;;;;;;;;;5011730;28;20124;-87
2022/05/14 12:35:22;;;;;;;18.70;5.00;;;;;;;;;;5009424;28;20073;-87
2022/05/14 12:37:51;;;;;;;25.30;6.27;;;;;;;;;;4973666;28;20386;-88
2022/05/14 12:40:36;;;;;;;25.50;5.78;;;;;;;;;;5007539;28;20042;-81
2022/05/14 12:43:03;;;;;;;22.60;5.82;;;;;;;;;;5009030;28;20042;-81
2022/05/14 12:45:36;;;;;;;25.02;6.00;;;;;;;;;;5009002;28;20042;-89
2022/05/14 12:48:03;;;;;;;20.38;5.82;;;;;;;;;;4993723;28;20021;-86
2022/05/14 12:50:33;;;;;;;21.63;5.45;;;;;;;;;;5012713;28;20042;-88
2022/05/14 12:53:01;;;;;;;19.60;6.10;;;;;;;;;;4994413;28;20096;-83
2022/05/14 12:55:31;;;;;;;29.17;6.28;;;;;;;;;;5019260;28;20081;-89
2022/05/14 12:57:58;;;;;;;18.30;5.55;;;;;;;;;;4998920;28;20034;-84
2022/05/14 13:01:06;;;;;;;28.75;6.05;;;;;;;;;;5023635;28;20041;-83
2022/05/14 13:03:19;;;;;;;20.75;5.53;;;;;;;;;;4933813;29;20051;-82
2022/05/14 13:05:50;;;;;;;20.23;5.55;;;;;;;;;;4936339;28;20057;-85
2022/05/14 13:08:21;;;;;;;23.77;6.15;;;;;;;;;;4935024;28;20051;-86
2022/05/14 13:10:52;;;;;;;20.67;5.70;;;;;;;;;;4968580;28;20035;-87
2022/05/14 13:13:18;;;;;;;24.48;6.22;;;;;;;;;;4971030;28;20050;-87
2022/05/14 13:15:52;;;;;;;23.30;5.65;;;;;;;;;;4965263;28;20039;-86
2022/05/14 13:18:23;;;;;;;22.40;5.70;;;;;;;;;;4970925;28;20071;-87
2022/05/14 13:21:00;;;;;;;17.95;4.90;;;;;;;;;;4965965;28;20039;-81
2022/05/14 13:23:26;;;;;;;23.13;6.03;;;;;;;;;;4954095;28;20059;-86
2022/05/14 13:26:12;;;;;;;20.30;5.72;;;;;;;;;;4953085;28;20066;-87
2022/05/14 13:28:40;;;;;;;23.10;6.10;;;;;;;;;;4969376;28;20039;-88
2022/05/14 13:31:19;;;;;;;20.77;5.63;;;;;;;;;;4973230;28;20046;-86
2022/05/14 13:33:56;;;;;;;30.20;6.13;;;;;;;;;;5002444;28;20065;-86
2022/05/14 13:39:11;;;;;;;20.77;5.65;;;;;;;;;;5021270;28;20037;-88
2022/05/14 13:41:40;;;;;;;20.20;5.35;;;;;;;;;;5019141;28;20045;-88
2022/05/14 13:44:22;;;;;;;22.65;5.50;;;;;;;;;;5014674;28;20037;-89
2022/05/14 13:47:01;;;;;;;24.60;5.88;;;;;;;;;;5011520;28;20088;-88
2022/05/14 13:49:29;;;;;;;19.27;5.60;;;;;;;;;;4999711;28;20050;-87
2022/05/14 13:51:58;;;;;;;22.05;6.13;;;;;;;;;;5005051;28;20069;-87
2022/05/14 13:54:30;;;;;;;23.35;5.93;;;;;;;;;;5000250;28;20049;-87
2022/05/14 13:57:01;;;;;;;17.52;5.60;;;;;;;;;;5016082;28;20041;-84
2022/05/14 13:59:28;;;;;;;23.98;5.82;;;;;;;;;;5023424;28;20037;-84
2022/05/14 14:02:07;;;;;;;21.50;5.50;;;;;;;;;;5015063;28;20073;-85
2022/05/14 14:04:34;;;;;;;23.63;6.18;;;;;;;;;;5016485;28;20042;-88
2022/05/14 14:07:02;;;;;;;16.15;5.35;;;;;;;;;;5017219;28;20052;-88
2022/05/14 14:09:28;;;;;;;26.52;6.03;;;;;;;;;;5016726;28;20033;-86
2022/05/14 14:11:54;;;;;;;19.50;5.78;;;;;;;;;;5001193;28;20461;-88
2022/05/14 14:14:21;;;;;;;25.40;6.07;;;;;;;;;;5010740;28;20471;-85
2022/05/14 14:16:47;;;;;;;19.90;6.53;;;;;;;;;;5008633;28;20060;-85
2022/05/14 14:19:13;;;;;;;22.52;5.25;;;;;;;;;;5006061;28;20113;-87
2022/05/14 14:21:39;;;;;;;24.38;5.80;;;;;;;;;;5007793;28;20050;-81
2022/05/14 14:24:09;;;;;;;18.02;5.50;;;24.30;99.90;;;;;;5006592;28;20037;-87
2022/05/14 14:26:37;;;;;;;21.02;6.22;;;;;;;;;;5008402;28;20449;-88
2022/05/14 14:29:03;;;;;;;24.42;5.75;;;;;;;;;;4990972;28;20061;-86
2022/05/14 14:31:31;;;;;;;22.65;5.63;;;;;;;;;;5007724;28;20056;-86
2022/05/14 14:34:42;;;;;;;20.42;5.40;;;;;;;;;;5008680;28;20565;-88
2022/05/14 14:36:49;;;;;;;18.50;5.32;;;;;;;;;;4997412;28;20459;-88
2022/05/14 14:39:15;;;;;;;18.42;5.55;;;;;;;;;;5008681;28;20053;-88
2022/05/14 14:41:41;;;;;;;24.48;6.65;;;;;;;;;;5006991;28;20410;-88
2022/05/14 14:44:08;;;;;;;24.95;6.25;;;;;;;;;;5009192;28;20128;-84
2022/05/14 14:46:34;;;;;;;22.48;5.45;;;;;;;;;;4989711;28;20046;-89
2022/05/14 14:49:07;;;;;;;19.90;5.53;;;;;;;;;;5006916;28;20085;-87
2022/05/14 14:51:33;;;;;;;23.98;5.97;;;;;;;;;;5006538;28;20139;-90
2022/05/14 14:53:59;;;;;;;19.70;6.03;;;;;;;;;;5006153;28;20822;-85
2022/05/14 14:56:25;;;;;;;19.45;5.25;;;;;;;;;;5007746;28;20054;-86
2022/05/14 14:58:51;;;;;;;23.55;6.35;;;;;;;;;;4995485;28;20049;-84
2022/05/14 15:01:23;;;;;;;22.95;6.28;;;;;;;;;;5009083;28;20145;-87
2022/05/14 15:03:51;;;;;;;23.50;6.57;;;;;;;;;;4987243;28;20426;-83
2022/05/14 15:06:19;;;;;;;20.50;5.65;;;;;;;;;;5006691;28;20058;-80
2022/05/14 15:08:46;;;;;;;22.95;5.88;;;;;;;;;;5007540;28;20048;-84
2022/05/14 15:11:20;;;;;;;17.08;5.15;;;;;;;;;;5008458;28;20133;-86
2022/05/14 15:13:57;;;;;;;14.43;5.72;;;;;;;;;;5007363;28;20030;-85
2022/05/14 15:16:23;;;;;;;18.40;5.55;;;;;;;;;;5005905;28;20108;-89
2022/05/14 15:18:49;;;;;;;21.23;6.45;;;;;;;;;;4989792;28;20069;-85
2022/05/14 15:21:16;;;;;;;19.17;5.22;;;;;;;;;;5007468;28;20042;-85